Time;durP1;ratioP1;P1;durP2;ratioP2;P2;SDS_P1;SDS_P2;PMS_P1;PMS_P2;Temp;Humidity;BMP_temperature;BMP_pressure;BME280_temperature;BME280_humidity;BME280_pressure;Samples;Min_cycle;Max_cycle;Signal;HPM_P1;HPM_P2
2021/05/03 00:01:14;;;;;;;3.97;2.00;;;;;;;;;;5039919;28;20463;-71
2021/05/03 00:03:45;;;;;;;4.37;2.20;;;;;;;;;;5039079;28;20451;-72
2021/05/03 00:06:15;;;;;;;2.80;1.30;;;;;;;;;;5039666;28;20455;-69
2021/05/03 00:08:44;;;;;;;10.30;2.13;;;;;;;;;;5038360;28;20454;-71
2021/05/03 00:11:13;;;;;;;3.70;2.27;;;;;;;;;;5038450;28;20451;-71
2021/05/03 00:13:43;;;;;;;5.70;1.63;;;;;;;;;;5038335;28;20450;-70
2021/05/03 00:16:13;;;;;;;9.23;3.30;;;;;;;;;;5038145;28;20925;-71
2021/05/03 00:18:41;;;;;;;4.60;1.77;;;;;;;;;;5036888;28;20455;-71
2021/05/03 00:21:21;;;;;;;3.40;1.90;;;;;;;;;;5038135;28;20541;-71
2021/05/03 00:23:50;;;;;;;3.93;2.87;;;;;;;;;;5037793;28;20489;-71
2021/05/03 00:26:21;;;;;;;2.80;1.53;;;;;;;;;;5039663;28;20447;-71
2021/05/03 00:28:55;;;;;;;3.70;1.60;;;;;;;;;;5037380;28;20542;-70
2021/05/03 00:31:27;;;;;;;1.77;1.10;;;;;;;;;;5038167;28;20535;-71
2021/05/03 00:33:55;;;;;;;4.43;1.50;;;;;;;;;;5027846;28;20451;-72
2021/05/03 00:36:31;;;;;;;1.73;1.33;;;;;;;;;;5038091;28;20910;-71
2021/05/03 00:39:02;;;;;;;1.97;1.20;;;;;;;;;;5038216;28;20728;-72
2021/05/03 00:41:32;;;;;;;4.10;1.70;;;;;;;;;;5037607;28;20455;-72
2021/05/03 00:44:01;;;;;;;2.47;1.77;;;;;;;;;;5038938;28;20447;-71
2021/05/03 00:46:29;;;;;;;5.80;1.80;;;;;;;;;;5038241;28;20439;-71
2021/05/03 00:48:59;;;;;;;2.90;1.80;;;;;;;;;;5037217;28;20466;-71
2021/05/03 00:51:27;;;;;;;4.60;1.90;;;;;;;;;;5038704;28;20858;-72
2021/05/03 00:53:54;;;;;;;3.63;2.30;;;;;;;;;;5038216;28;20574;-69
2021/05/03 00:56:25;;;;;;;3.53;1.83;;;;;;;;;;5038017;28;20624;-71
2021/05/03 00:58:53;;;;;;;5.00;1.90;;;;;;;;;;5036575;28;20463;-72
2021/05/03 01:01:24;;;;;;;3.07;2.17;;;;;;;;;;5037106;28;20478;-70
2021/05/03 01:03:54;;;;;;;3.67;1.97;;;;;;;;;;5036835;28;20450;-71
2021/05/03 01:06:21;;;;;;;4.00;1.60;;;;;;;;;;5037254;28;20452;-71
2021/05/03 01:08:50;;;;;;;4.27;2.00;;;;;;;;;;5036602;28;20589;-71
2021/05/03 01:11:23;;;;;;;2.97;1.83;;;;;;;;;;5036755;28;20457;-70
2021/05/03 01:13:51;;;;;;;2.40;1.50;;;;;;;;;;5037252;28;20435;-71
2021/05/03 01:16:22;;;;;;;8.17;2.10;;;;;;;;;;5036271;28;20474;-71
2021/05/03 01:18:50;;;;;;;7.77;3.03;;;;;;;;;;5036969;28;20462;-71
2021/05/03 01:21:27;;;;;;;5.03;2.00;;;;;;;;;;5037240;28;20455;-71
2021/05/03 01:23:55;;;;;;;3.30;2.30;;;;;;;;;;5037164;28;20520;-71
2021/05/03 01:26:23;;;;;;;5.17;2.50;;;;;;;;;;5037226;28;20494;-71
2021/05/03 01:28:51;;;;;;;2.80;1.70;;;;;;;;;;5036781;28;20462;-71
2021/05/03 01:31:18;;;;;;;3.13;2.07;;;;;;;;;;5036230;28;20462;-71
2021/05/03 01:33:45;;;;;;;6.23;2.67;;;;;;;;;;5036720;28;20783;-71
2021/05/03 01:36:13;;;;;;;4.50;2.50;;;;;;;;;;5036932;28;20919;-71
2021/05/03 01:38:49;;;;;;;3.43;2.20;;;;;;;;;;5036528;28;20462;-72
2021/05/03 01:41:19;;;;;;;3.27;1.70;;;;;;;;;;5037436;28;20483;-71
2021/05/03 01:43:51;;;;;;;2.43;1.50;;;;;;;;;;5036165;28;20470;-71
2021/05/03 01:46:23;;;;;;;3.03;1.40;;;;;;;;;;5018830;28;20534;-71
2021/05/03 01:48:50;;;;;;;6.53;2.30;;;;;;;;;;5037392;28;20466;-71
2021/05/03 01:51:25;;;;;;;4.47;1.73;;;;;;;;;;5036673;28;20748;-71
2021/05/03 01:53:57;;;;;;;2.20;1.03;;;;;;;;;;5035464;28;20461;-71
2021/05/03 01:56:26;;;;;;;5.77;2.10;;;;;;;;;;5036452;28;20487;-71
2021/05/03 01:58:55;;;;;;;2.37;1.67;;;;;;;;;;5037074;28;20462;-71
2021/05/03 02:01:24;;;;;;;3.37;1.83;;;;;;;;;;5036817;28;20477;-70
2021/05/03 02:03:51;;;;;;;2.50;1.90;;;;;;;;;;5036618;28;20862;-70
2021/05/03 02:06:18;;;;;;;1.83;1.20;;;;;;;;;;5036692;28;20459;-71
2021/05/03 02:08:54;;;;;;;2.10;1.17;;;;;;;;;;5035968;28;20895;-70
2021/05/03 02:11:22;;;;;;;5.10;1.80;;;;;;;;;;5036730;28;20485;-72
2021/05/03 02:13:50;;;;;;;4.33;2.07;;;;;;;;;;5036554;28;20459;-71
2021/05/03 02:16:17;;;;;;;4.43;2.17;;;;;;;;;;5036451;28;20745;-71
2021/05/03 02:18:46;;;;;;;2.90;1.43;;;;;;;;;;5036120;28;20524;-72
2021/05/03 02:21:14;;;;;;;4.33;1.30;;;;;;;;;;5036308;28;20457;-71
2021/05/03 02:23:42;;;;;;;6.57;3.13;;;;;;;;;;5036607;28;20458;-71
2021/05/03 02:26:10;;;;;;;3.83;2.10;;;;;;;;;;5036118;28;20898;-71
2021/05/03 02:28:43;;;;;;;2.17;1.50;;;;;;;;;;5036103;28;20466;-71
2021/05/03 02:31:13;;;;;;;2.77;1.60;;;;;;;;;;5036295;28;20465;-72
2021/05/03 02:33:40;;;;;;;5.37;2.40;;;;;;;;;;5036530;28;20501;-71
2021/05/03 02:36:10;;;;;;;2.80;1.93;;;;;;;;;;5036220;28;20490;-71
2021/05/03 02:38:41;;;;;;;4.27;2.37;;;;;;;;;;5035722;28;20483;-72
2021/05/03 02:41:08;;;;;;;2.83;1.70;;;;;;;;;;5035826;28;20474;-71
2021/05/03 02:43:43;;;;;;;3.73;3.33;;;;;;;;;;5036419;28;20477;-71
2021/05/03 02:46:13;;;;;;;5.93;2.53;;;;;;;;;;5036859;28;20454;-71
2021/05/03 02:48:50;;;;;;;4.37;2.50;;;;;;;;;;5036062;28;20446;-71
2021/05/03 02:51:20;;;;;;;5.80;2.17;;;;;;;;;;5036757;28;20455;-71
2021/05/03 02:53:48;;;;;;;5.80;1.87;;;;;;;;;;5036834;28;20578;-71
2021/05/03 02:56:15;;;;;;;3.63;1.93;;;;;;;;;;5039021;28;20892;-71
2021/05/03 02:58:42;;;;;;;2.93;1.90;;;;;;;;;;5039468;28;20917;-71
2021/05/03 03:01:09;;;;;;;3.90;1.80;;;;;;;;;;5039784;28;20542;-71
2021/05/03 03:03:38;;;;;;;3.60;2.23;;;;;;;;;;5039609;28;20550;-71
2021/05/03 03:06:05;;;;;;;4.53;2.30;;;;;;;;;;5041214;28;20517;-71
2021/05/03 03:08:32;;;;;;;4.47;1.93;;;;;;;;;;5039809;28;20519;-71
2021/05/03 03:11:00;;;;;;;5.63;2.13;;;;;;;;;;5039370;28;20458;-71
2021/05/03 03:13:27;;;;;;;3.73;2.10;;;;;;;;;;5039813;28;20454;-71
2021/05/03 03:15:55;;;;;;;5.83;4.23;;;;;;;;;;5039449;28;20491;-71
2021/05/03 03:18:22;;;;;;;3.83;2.03;;;;;;;;;;5038833;28;20866;-71
2021/05/03 03:20:52;;;;;;;3.80;2.53;;;;;;;;;;5038761;28;20519;-71
2021/05/03 03:23:19;;;;;;;6.03;2.70;;;;;;;;;;5036083;28;20835;-71
2021/05/03 03:25:46;;;;;;;3.10;1.80;;;;;;;;;;5039264;28;20549;-71
2021/05/03 03:28:14;;;;;;;7.03;3.23;;;;;;;;;;5039135;28;20480;-72
2021/05/03 03:30:51;;;;;;;4.50;1.80;;;;;;;;;;5039786;28;20502;-71
2021/05/03 03:33:21;;;;;;;3.00;2.30;;;;;;;;;;5039990;28;20501;-71
2021/05/03 03:35:50;;;;;;;6.57;2.17;;;;;;;;;;5039532;28;20466;-72
2021/05/03 03:38:19;;;;;;;4.50;2.70;;;;;;;;;;5039489;28;20457;-72
2021/05/03 03:40:46;;;;;;;4.20;2.67;;;;;;;;;;5039696;28;20481;-71
2021/05/03 03:43:14;;;;;;;3.67;2.63;;;;;;;;;;5038844;28;20823;-71
2021/05/03 03:45:41;;;;;;;4.93;3.37;;;;;;;;;;5038798;28;20463;-71
2021/05/03 03:48:09;;;;;;;4.00;2.63;;;;;;;;;;5038760;28;21046;-71
2021/05/03 03:50:38;;;;;;;4.87;2.90;;;;;;;;;;5039030;28;20485;-71
2021/05/03 03:53:05;;;;;;;2.50;1.70;;;;;;;;;;5039107;28;20457;-71
2021/05/03 03:55:33;;;;;;;2.67;2.10;;;;;;;;;;5039144;28;20493;-71
2021/05/03 03:58:00;;;;;;;4.10;2.23;;;;;;;;;;5038613;28;21156;-70
2021/05/03 04:03:34;;;;;;;3.50;2.47;;;;;;;;;;5038149;28;20410;-71
2021/05/03 04:06:15;;;;;;;6.43;2.53;;;;;;;;;;5037599;28;20459;-71
2021/05/03 04:08:48;;;;;;;5.07;3.23;;;;;;;;;;5037945;28;20459;-71
2021/05/03 04:11:26;;;;;;;4.43;3.00;;;;;;;;;;5038111;28;20463;-71
2021/05/03 04:22:38;;;;;;;4.30;2.80;;;;;;;;;;5005004;28;20419;-71
2021/05/03 04:25:13;;;;;;;3.90;2.67;;;;;;;;;;5038169;28;20946;-71
2021/05/03 04:27:42;;;;;;;5.23;2.73;;;;;;;;;;5038206;28;20451;-71
2021/05/03 04:30:09;;;;;;;11.93;3.30;;;;;;;;;;5037769;28;20455;-71
2021/05/03 04:32:37;;;;;;;4.60;3.10;;;;;;;;;;5037758;28;20453;-71
2021/05/03 04:35:04;;;;;;;3.13;1.87;;;;;;;;;;5036605;28;20524;-71
2021/05/03 04:37:32;;;;;;;5.10;3.30;;;;;;;;;;5037063;28;20482;-71
2021/05/03 04:39:59;;;;;;;3.70;2.30;;;;;;;;;;5037568;28;20847;-71
2021/05/03 04:42:26;;;;;;;5.13;3.13;;;;;;;;;;5037069;28;20463;-71
2021/05/03 04:44:54;;;;;;;10.60;5.80;;;;;;;;;;5037607;28;20470;-72
2021/05/03 04:47:25;;;;;;;9.00;4.40;;;;;;;;;;5036578;28;20521;-71
2021/05/03 04:49:54;;;;;;;8.83;3.20;;;;;;;;;;5036979;28;20519;-71
2021/05/03 04:52:21;;;;;;;8.57;4.17;;;;;;;;;;5036632;28;20859;-71
2021/05/03 04:54:48;;;;;;;3.43;2.47;;;;;;;;;;5036072;28;20734;-71
2021/05/03 04:57:15;;;;;;;6.43;3.00;;;;;;;;;;5036983;28;20502;-71
2021/05/03 04:59:42;;;;;;;4.27;2.50;;;;;;;;;;5036159;28;20829;-71
2021/05/03 05:02:11;;;;;;;4.67;2.47;;;;;;;;;;5036151;28;21109;-71
2021/05/03 05:04:38;;;;;;;6.03;3.23;;;;;;;;;;5036266;28;20513;-71
2021/05/03 05:07:06;;;;;;;2.80;1.60;;;;;;;;;;5036160;28;20458;-71
2021/05/03 05:09:33;;;;;;;7.07;3.00;;;;;;;;;;5035820;28;20765;-71
2021/05/03 05:12:00;;;;;;;4.80;2.63;;;;;;;;;;5037128;28;20493;-71
2021/05/03 05:14:27;;;;;;;2.60;1.80;;;;;;;;;;5036128;28;20572;-71
2021/05/03 05:16:54;;;;;;;3.80;1.90;;;;;;;;;;5036474;28;20771;-71
2021/05/03 05:19:23;;;;;;;3.10;2.23;;;;;;;;;;5034991;28;20463;-70
2021/05/03 05:21:51;;;;;;;3.10;2.10;;;;;;;;;;5035229;28;20463;-70
2021/05/03 05:24:19;;;;;;;7.60;2.50;;;;;;;;;;5035330;28;20455;-70
2021/05/03 05:26:46;;;;;;;4.33;2.40;;;;;;;;;;5035036;28;20487;-70
2021/05/03 05:29:14;;;;;;;5.00;3.17;;;;;;;;;;5035011;28;20450;-69
2021/05/03 05:31:41;;;;;;;8.27;2.37;;;;;;;;;;5035058;28;20498;-70
2021/05/03 05:34:08;;;;;;;4.03;2.40;;;;;;;;;;5035421;28;20462;-70
2021/05/03 05:36:36;;;;;;;6.00;3.07;;;;;;;;;;5034712;28;20556;-70
2021/05/03 05:39:04;;;;;;;5.17;3.13;;;;;;;;;;5035039;28;20466;-70
2021/05/03 05:41:31;;;;;;;4.80;3.17;;;;;;;;;;5034259;28;20463;-70
2021/05/03 05:43:59;;;;;;;4.33;2.40;;;;;;;;;;5033806;28;20554;-70
2021/05/03 05:46:26;;;;;;;2.80;2.07;;;;;;;;;;5034966;28;20434;-70
2021/05/03 05:48:53;;;;;;;4.60;2.53;;;;;;;;;;5034179;28;20477;-70
2021/05/03 05:51:20;;;;;;;3.57;2.23;;;;;;;;;;5034686;28;20450;-70
2021/05/03 05:53:49;;;;;;;4.23;2.40;;;;;;;;;;5034327;28;20455;-70
2021/05/03 05:56:16;;;;;;;4.83;2.10;;;;;;;;;;5033308;28;20486;-70
2021/05/03 05:58:46;;;;;;;5.23;2.40;;;;;;;;;;5032982;28;20454;-71
2021/05/03 06:01:14;;;;;;;5.47;2.40;;;;;;;;;;5033064;28;20465;-70
2021/05/03 06:03:41;;;;;;;5.07;2.73;;;;;;;;;;5033768;28;20549;-70
2021/05/03 06:06:08;;;;;;;5.20;2.47;;;;;;;;;;5034160;28;20938;-71
2021/05/03 06:08:37;;;;;;;3.50;2.00;;;;;;;;;;5034290;28;20930;-70
2021/05/03 06:11:05;;;;;;;6.43;2.30;;;;;;;;;;5033928;28;20462;-71
2021/05/03 06:13:33;;;;;;;3.70;1.77;;;;;;;;;;5034713;28;20544;-70
2021/05/03 06:16:01;;;;;;;3.40;1.93;;;;;;;;;;5034720;28;20568;-70
2021/05/03 06:18:28;;;;;;;4.10;2.70;;;;;;;;;;5034260;28;20556;-70
2021/05/03 06:20:56;;;;;;;3.03;2.20;;;;;;;;;;5033132;28;20523;-70
2021/05/03 06:23:23;;;;;;;3.63;2.43;;;;;;;;;;5029295;28;20467;-71
2021/05/03 06:25:52;;;;;;;4.60;2.30;;;;;;;;;;5028278;28;20482;-70
2021/05/03 06:28:23;;;;;;;3.33;2.30;;;;;;;;;;5028139;28;20485;-71
2021/05/03 06:30:55;;;;;;;3.80;2.10;;;;;;;;;;5019651;28;20876;-71
2021/05/03 06:33:22;;;;;;;2.60;1.47;;;;;;;;;;5020683;28;20902;-71
2021/05/03 06:35:49;;;;;;;2.30;1.60;;;;;;;;;;5019671;28;20741;-71
2021/05/03 06:38:17;;;;;;;3.03;2.50;;;;;;;;;;5028585;28;20545;-71
2021/05/03 06:40:45;;;;;;;4.07;2.47;;;;;;;;;;5038361;28;20462;-71
2021/05/03 06:43:18;;;;;;;7.50;2.93;;;;;;;;;;5039682;28;20454;-71
2021/05/03 06:45:59;;;;;;;4.13;2.43;;;;;;;;;;5038437;28;20450;-71
2021/05/03 06:48:26;;;;;;;2.67;2.10;;;;;;;;;;5039132;28;20462;-71
2021/05/03 06:50:54;;;;;;;9.20;2.10;;;;;;;;;;5039207;28;20459;-74
2021/05/03 06:53:22;;;;;;;4.47;2.60;;;;;;;;;;5038644;28;20459;-70
2021/05/03 06:55:53;;;;;;;4.40;2.03;;;;;;;;;;5040263;28;20541;-70
2021/05/03 06:58:28;;;;;;;6.33;2.60;;;;;;;;;;5037893;28;20478;-70
2021/05/03 07:01:08;;;;;;;2.83;2.40;;;;;;;;;;5038321;28;20461;-70
2021/05/03 07:03:40;;;;;;;2.90;2.17;;;;;;;;;;5033293;28;20884;-71
2021/05/03 07:06:12;;;;;;;4.10;2.97;;;;;;;;;;5020142;28;20542;-70
2021/05/03 07:08:44;;;;;;;4.53;2.30;;;;;;;;;;5032404;28;20459;-70
2021/05/03 07:11:14;;;;;;;3.80;2.23;;;;;;;;;;5039486;28;21026;-70
2021/05/03 07:13:44;;;;;;;8.10;1.87;;;;;;;;;;5039014;28;20625;-70
2021/05/03 07:16:25;;;;;;;3.50;2.60;;;;;;;;;;5038801;28;20487;-70
2021/05/03 07:18:54;;;;;;;4.17;2.20;;;;;;;;;;5039007;28;20451;-70
2021/05/03 07:21:28;;;;;;;8.60;3.20;;;;;;;;;;5036254;28;20451;-70
2021/05/03 07:23:56;;;;;;;2.40;1.70;;;;;;;;;;5021917;28;20502;-70
2021/05/03 07:26:23;;;;;;;10.83;1.97;;;;;;;;;;5024524;28;20454;-70
2021/05/03 07:28:50;;;;;;;1.57;1.30;;;;;;;;;;5038703;28;20462;-70
2021/05/03 07:31:21;;;;;;;3.67;1.40;;;;;;;;;;5038350;28;20871;-70
2021/05/03 07:33:49;;;;;;;2.80;1.67;;;;;;;;;;5038496;28;20446;-71
2021/05/03 07:36:20;;;;;;;3.27;1.97;;;;;;;;;;5036544;28;20466;-70
2021/05/03 07:38:48;;;;;;;4.77;1.67;;;;;;;;;;5038158;28;20454;-70
2021/05/03 07:41:16;;;;;;;4.20;1.87;;;;;;;;;;5036214;28;20502;-71
2021/05/03 07:43:43;;;;;;;2.23;1.80;;;;;;;;;;5036996;28;20601;-72
2021/05/03 07:46:12;;;;;;;2.83;2.30;;;;;;;;;;5034633;28;20471;-71
2021/05/03 07:48:40;;;;;;;8.53;1.97;;;;;;;;;;5037780;28;20451;-71
2021/05/03 07:51:08;;;;;;;2.30;1.60;;;;;;;;;;5037641;28;20509;-71
2021/05/03 07:53:38;;;;;;;3.43;2.07;;;;;;;;;;5036334;28;20447;-71
2021/05/03 07:56:06;;;;;;;2.97;1.50;;;;;;;;;;5037285;28;20455;-71
2021/05/03 07:58:33;;;;;;;1.90;1.20;;;;;;;;;;5037752;28;21022;-71
2021/05/03 08:01:04;;;;;;;2.07;1.30;;;;;;;;;;5037361;28;20490;-71
2021/05/03 08:03:32;;;;;;;1.97;1.17;;;;;;;;;;5037048;28;20544;-71
2021/05/03 08:06:02;;;;;;;4.40;1.50;;;;;;;;;;5035328;28;20455;-71
2021/05/03 08:08:39;;;;;;;1.90;1.37;;;;;;;;;;5036113;28;20454;-71
2021/05/03 08:11:08;;;;;;;2.40;1.57;;;;;;;;;;5037106;28;20465;-71
2021/05/03 08:13:35;;;;;;;2.63;1.27;;;;;;;;;;5036062;28;20451;-70
2021/05/03 08:16:05;;;;;;;3.17;1.20;;;;;;;;;;5037301;28;20466;-71
2021/05/03 08:18:38;;;;;;;2.60;1.23;;;;;;;;;;5036765;28;20493;-72
2021/05/03 08:21:12;;;;;;;2.40;1.20;;;;;;;;;;5036798;28;20882;-71
2021/05/03 08:23:40;;;;;;;2.00;1.40;;;;;;;;;;5037648;28;20665;-70
2021/05/03 08:26:07;;;;;;;3.47;1.50;;;;;;;;;;5036613;28;20548;-71
2021/05/03 08:28:35;;;;;;;2.93;1.33;;;;;;;;;;5036079;28;20870;-71
2021/05/03 08:31:02;;;;;;;2.17;1.13;;;;;;;;;;5034678;28;20458;-70
2021/05/03 08:33:29;;;;;;;1.83;1.47;;;;;;;;;;5036091;28;20451;-71
2021/05/03 08:35:57;;;;;;;2.23;1.20;;;;;;;;;;5035238;28;20470;-70
2021/05/03 08:38:25;;;;;;;2.37;1.57;;;;;;;;;;5036929;28;20485;-70
2021/05/03 08:40:54;;;;;;;3.03;1.53;;;;;;;;;;5035896;28;20895;-70
2021/05/03 08:43:22;;;;;;;1.83;1.13;;;;;;;;;;5024612;28;20472;-70
2021/05/03 08:45:50;;;;;;;2.43;1.30;;;;;;;;;;5015884;28;20475;-70
2021/05/03 08:48:23;;;;;;;2.27;1.57;;;;;;;;;;5034957;28;20542;-71
2021/05/03 08:50:59;;;;;;;2.50;1.40;;;;;;;;;;5036029;28;20497;-72
2021/05/03 08:53:32;;;;;;;2.77;2.20;;;;;;;;;;5035960;28;20512;-71
2021/05/03 08:55:59;;;;;;;2.20;1.40;;;;;;;;;;5036303;28;20538;-71
2021/05/03 08:58:27;;;;;;;1.80;1.23;;;;;;;;;;5022608;28;20491;-70
2021/05/03 09:00:56;;;;;;;1.83;1.20;;;;;;;;;;5020467;28;20479;-70
2021/05/03 09:03:33;;;;;;;1.87;1.23;;;;;;;;;;5016921;28;20452;-72
2021/05/03 09:06:03;;;;;;;2.93;1.00;;;;;;;;;;5017505;28;20562;-70
2021/05/03 09:08:32;;;;;;;2.20;1.20;;;;;;;;;;5019587;28;20459;-70
2021/05/03 09:11:01;;;;;;;2.10;1.60;;;;;;;;;;5036584;28;20577;-71
2021/05/03 09:13:30;;;;;;;2.83;2.03;;;;;;;;;;5033788;28;20454;-72
2021/05/03 09:16:22;;;;;;;2.50;1.80;;;;;;;;;;5018816;28;20495;-69
2021/05/03 09:18:51;;;;;;;2.30;1.60;;;;;;;;;;5024526;28;20609;-71
2021/05/03 09:21:22;;;;;;;3.20;2.07;;;;;;;;;;5035836;28;20458;-71
2021/05/03 09:24:08;;;;;;;4.30;3.00;;;;;;;;;;5036100;28;20451;-71
2021/05/03 09:26:42;;;;;;;3.93;2.27;;;;;;;;;;5035256;28;20459;-71
2021/05/03 09:29:25;;;;;;;3.97;3.00;;;;;;;;;;5035763;28;20461;-72
2021/05/03 09:32:07;;;;;;;2.80;1.90;;;;;;;;;;5022934;28;20542;-71
2021/05/03 09:34:35;;;;;;;7.60;2.90;;;;;;;;;;5015664;28;20470;-71
2021/05/03 09:37:21;;;;;;;3.20;2.30;;;;;;;;;;5015070;28;20590;-70
2021/05/03 09:39:59;;;;;;;3.17;1.90;;;;;;;;;;5016116;28;21149;-70
2021/05/03 09:42:43;;;;;;;2.40;1.60;;;;;;;;;;5014927;28;20455;-70
2021/05/03 09:45:11;;;;;;;4.83;2.23;;;;;;;;;;5014792;28;20464;-70
2021/05/03 09:47:40;;;;;;;3.60;1.30;;;;;;;;;;5022185;28;20561;-70
2021/05/03 09:50:12;;;;;;;2.60;1.80;;;;;;;;;;5032654;28;20747;-70
2021/05/03 09:52:42;;;;;;;4.87;1.63;;;;;;;;;;5025757;28;20516;-71
2021/05/03 09:55:26;;;;;;;3.93;2.20;;;;;;;;;;5033101;28;20486;-70
2021/05/03 09:58:08;;;;;;;2.70;2.00;;;;;;;;;;5030702;28;20510;-70
2021/05/03 10:00:37;;;;;;;2.80;1.77;;;;;;;;;;5025475;28;20476;-70
2021/05/03 10:03:19;;;;;;;3.23;1.20;;;;;;;;;;5021751;28;20510;-70
2021/05/03 10:05:48;;;;;;;4.60;3.53;;;;;;;;;;5015721;28;20827;-70
2021/05/03 10:08:15;;;;;;;5.30;2.73;;;;;;;;;;5033355;28;21055;-70
2021/05/03 10:10:47;;;;;;;5.77;4.83;;;;;;;;;;5033747;28;20443;-70
2021/05/03 10:13:20;;;;;;;5.70;3.90;;;;;;;;;;5029825;28;20499;-70
2021/05/03 10:15:49;;;;;;;8.30;4.73;;;;;;;;;;5033667;28;20455;-70
2021/05/03 10:18:21;;;;;;;8.73;3.87;;;;;;;;;;5032283;28;20537;-71
2021/05/03 10:20:55;;;;;;;6.50;4.73;;;;;;;;;;5034190;28;20466;-71
2021/05/03 10:23:25;;;;;;;5.53;4.77;;;;;;;;;;5029710;28;21127;-71
2021/05/03 10:25:58;;;;;;;5.13;4.63;;;;;;;;;;5015581;28;20483;-70
2021/05/03 10:28:29;;;;;;;4.50;3.47;;;;;;;;;;5015290;28;20444;-70
2021/05/03 10:30:58;;;;;;;4.27;3.87;;;;;;;;;;5015303;28;20667;-70
2021/05/03 10:33:46;;;;;;;4.97;3.40;;;;;;;;;;5014813;28;20557;-70
2021/05/03 10:36:31;;;;;;;5.93;4.27;;;;;;;;;;5014681;28;20461;-70
2021/05/03 10:38:58;;;;;;;2.97;2.50;;;;;;;;;;5015512;28;20448;-70
2021/05/03 10:41:31;;;;;;;4.77;3.80;;;;;;;;;;5030363;28;20478;-69
2021/05/03 10:44:22;;;;;;;4.73;3.70;;;;;;;;;;5032839;28;20466;-69
2021/05/03 10:47:00;;;;;;;5.63;3.73;;;;;;;;;;5008687;28;20463;-70
2021/05/03 10:49:31;;;;;;;3.60;2.17;;;;;;;;;;5027264;28;20454;-70
2021/05/03 10:52:01;;;;;;;2.57;1.90;;;;;;;;;;5034028;28;20450;-68
2021/05/03 10:54:41;;;;;;;2.50;1.90;;;;;;;;;;5034419;28;20862;-69
2021/05/03 10:57:10;;;;;;;3.37;2.90;;;;;;;;;;5033312;28;20506;-70
2021/05/03 10:59:48;;;;;;;3.67;3.07;;;;;;;;;;5033500;28;20458;-70
2021/05/03 11:02:19;;;;;;;5.03;3.40;;;;;;;;;;5033882;28;20544;-71
2021/05/03 11:05:09;;;;;;;4.17;3.77;;;;;;;;;;5030409;28;20469;-71
2021/05/03 11:07:36;;;;;;;4.87;4.00;;;;;;;;;;5032525;28;20635;-70
2021/05/03 11:10:08;;;;;;;5.43;4.10;;;;;;;;;;5033183;28;20465;-70
2021/05/03 11:12:36;;;;;;;5.07;3.30;;;;;;;;;;5032499;28;20462;-70
2021/05/03 11:15:15;;;;;;;4.97;3.53;;;;;;;;;;5031594;28;20454;-68
2021/05/03 11:18:02;;;;;;;4.60;3.27;;;;;;;;;;5020657;28;21266;-68
2021/05/03 11:21:08;;;;;;;4.40;3.43;;;;;;;;;;5018382;28;20456;-68
2021/05/03 11:23:41;;;;;;;5.70;4.80;;;;;;;;;;5020298;28;20475;-70
2021/05/03 11:26:45;;;;;;;4.10;3.50;;;;;;;;;;5038816;28;20493;-72
2021/05/03 11:29:16;;;;;;;5.53;3.40;;;;;;;;;;5036222;28;20495;-71
2021/05/03 11:31:52;;;;;;;9.77;4.20;;;;;;;;;;5036332;28;20464;-72
2021/05/03 11:34:25;;;;;;;4.63;3.40;;;;;;;;;;5035932;28;20446;-72
2021/05/03 11:37:07;;;;;;;4.30;3.17;;;;;;;;;;5030290;28;20571;-70
2021/05/03 11:39:52;;;;;;;8.53;5.30;;;;;;;;;;5018206;28;20463;-71
2021/05/03 11:42:56;;;;;;;8.17;4.40;;;;;;;;;;5016678;28;20506;-72
2021/05/03 11:45:29;;;;;;;6.57;5.27;;;;;;;;;;5037631;28;20612;-73
2021/05/03 11:48:00;;;;;;;6.23;4.10;;;;;;;;;;5037659;28;20442;-70
2021/05/03 11:50:39;;;;;;;7.33;6.63;;;;;;;;;;5036727;28;20796;-72
2021/05/03 11:53:28;;;;;;;5.67;4.00;;;;;;;;;;5036313;28;20878;-71
2021/05/03 11:56:25;;;;;;;7.87;5.13;;;;;;;;;;5036451;28;20435;-71
2021/05/03 12:02:13;;;;;;;;;;;;;;;;;;;;;
2021/05/03 12:05:03;;;;;;;8.90;5.20;;;;;;;;;;5037865;28;20451;-74
2021/05/03 12:07:44;;;;;;;7.23;4.83;;;;;;;;;;5029985;28;20532;-71
2021/05/03 12:10:14;;;;;;;5.97;4.80;;;;;;;;;;5036148;28;20890;-70
2021/05/03 12:12:42;;;;;;;8.33;5.50;;;;;;;;;;5035589;28;20554;-69
2021/05/03 12:15:10;;;;;;;9.17;6.57;;;;;;;;;;5035511;28;20478;-71
2021/05/03 12:17:42;;;;;;;5.60;4.50;;;;;;;;;;5034757;28;20921;-71
2021/05/03 12:20:16;;;;;;;7.20;4.73;;;;;;;;;;5037315;28;20854;-71
2021/05/03 12:23:00;;;;;;;4.33;3.27;;;;;;;;;;5037430;28;20536;-73
2021/05/03 12:25:37;;;;;;;9.67;5.87;;;;;;;;;;5036167;28;20451;-72
2021/05/03 12:28:19;;;;;;;16.50;6.47;;;;;;;;;;5037090;28;20875;-71
2021/05/03 12:30:49;;;;;;;8.00;6.20;;;;;;;;;;5036661;28;20532;-72
2021/05/03 12:33:21;;;;;;;8.73;6.73;;;;;;;;;;5036366;28;20447;-71
2021/05/03 12:35:52;;;;;;;11.17;7.53;;;;;;;;;;5035528;28;20462;-71
2021/05/03 12:41:07;;;;;;;10.13;7.97;;;;;;;;;;5031769;28;20465;-71
2021/05/03 12:46:55;;;;;;;12.30;7.33;;;;;;;;;;5035317;28;20435;-72
2021/05/03 12:50:00;;;;;;;14.20;7.27;;;;;;;;;;5036362;28;20504;-71
2021/05/03 12:55:40;;;;;;;10.13;7.70;;;;;;;;;;5035708;28;20548;-71
2021/05/03 12:58:27;;;;;;;8.90;6.63;;;;;;;;;;5036033;28;20502;-70
2021/05/03 13:01:04;;;;;;;9.63;7.30;;;;;;;;;;5034442;28;20470;-71
2021/05/03 13:03:47;;;;;;;8.93;7.60;;;;;;;;;;5035829;28;20753;-72
2021/05/03 13:06:28;;;;;;;12.33;8.70;;;;;;;;;;5035576;28;20864;-71
2021/05/03 13:09:27;;;;;;;10.00;7.33;;;;;;;;;;5036594;28;20451;-71
2021/05/03 13:29:03;;;;;;;7.90;6.33;;;;;;;;;;5006685;28;20527;-72
2021/05/03 13:31:33;;;;;;;10.13;5.70;;;;;;;;;;5033250;28;20886;-72
2021/05/03 13:34:00;;;;;;;8.27;5.93;;;;;;;;;;5036367;28;20466;-71
2021/05/03 13:36:29;;;;;;;8.57;6.93;;;;;;;;;;5035383;28;20550;-71
2021/05/03 13:38:56;;;;;;;8.63;6.43;;;;;;;;;;5034645;28;20582;-72
2021/05/03 13:41:27;;;;;;;7.37;5.70;;;;;;;;;;5034676;28;20473;-71
2021/05/03 13:43:58;;;;;;;6.83;5.80;;;;;;;;;;5032667;28;21085;-70
2021/05/03 13:46:28;;;;;;;7.50;5.87;;;;;;;;;;5035623;28;20889;-71
2021/05/03 13:48:58;;;;;;;6.87;4.57;;;;;;;;;;5035696;28;20525;-71
2021/05/03 13:51:35;;;;;;;5.70;4.47;;;;;;;;;;5035733;28;20454;-72
2021/05/03 13:54:07;;;;;;;8.30;6.30;;;;;;;;;;5034708;28;20458;-71
2021/05/03 14:00:04;;;;;;;11.70;5.97;;;;;;;;;;5017821;28;20435;-72
2021/05/03 14:03:13;;;;;;;6.40;5.67;;;;;;;;;;5036243;28;20427;-71
2021/05/03 14:05:53;;;;;;;7.23;5.07;;;;;;;;;;4974807;28;20552;-72
2021/05/03 14:08:28;;;;;;;9.43;8.47;;;;;;;;;;4972272;28;20453;-70
2021/05/03 14:10:55;;;;;;;7.77;5.60;;;;;;;;;;5006985;28;20494;-70
2021/05/03 14:13:24;;;;;;;7.93;6.10;;;;;;;;;;5023515;28;20455;-70
2021/05/03 14:15:54;;;;;;;9.10;7.20;;;;;;;;;;5037075;28;20443;-71
2021/05/03 14:18:25;;;;;;;7.17;6.30;;;;;;;;;;5034123;28;20487;-71
2021/05/03 14:20:54;;;;;;;12.73;8.10;;;;;;;;;;5023272;28;20927;-70
2021/05/03 14:23:31;;;;;;;11.33;9.07;;;;;;;;;;5037822;28;20451;-70
2021/05/03 14:26:02;;;;;;;10.60;8.27;;;;;;;;;;5037854;28;20787;-71
2021/05/03 14:28:36;;;;;;;15.10;9.80;;;;;;;;;;5034464;28;20534;-70
2021/05/03 14:31:08;;;;;;;15.90;11.00;;;;;;;;;;5034861;28;20937;-70
2021/05/03 14:33:37;;;;;;;14.37;11.17;;;;;;;;;;5035236;28;20470;-70
2021/05/03 14:36:09;;;;;;;15.53;10.90;;;;;;;;;;5034712;28;20462;-71
2021/05/03 14:38:37;;;;;;;13.63;10.70;;;;;;;;;;5034816;28;20482;-71
2021/05/03 14:41:06;;;;;;;11.33;8.63;;;;;;;;;;5034272;28;20577;-71
2021/05/03 14:43:36;;;;;;;10.90;7.33;;;;;;;;;;5034729;28;20459;-70
2021/05/03 14:46:26;;;;;;;11.50;7.40;;;;;;;;;;5035057;28;20470;-71
2021/05/03 14:48:59;;;;;;;11.00;6.97;;;;;;;;;;5035177;28;20451;-71
2021/05/03 14:51:49;;;;;;;9.10;7.40;;;;;;;;;;5029366;28;20451;-69
2021/05/03 14:57:16;;;;;;;9.23;6.40;;;;;;;;;;5020205;28;20472;-71
2021/05/03 14:59:44;;;;;;;7.20;5.60;;;;;;;;;;5025625;28;20854;-70
2021/05/03 15:02:12;;;;;;;7.80;6.23;;;;;;;;;;5037508;28;20455;-71
2021/05/03 15:04:40;;;;;;;7.93;6.60;;;;;;;;;;5036630;28;20769;-71
2021/05/03 15:07:11;;;;;;;6.70;5.70;;;;;;;;;;5039383;28;20494;-70
2021/05/03 15:09:48;;;;;;;7.43;5.30;;;;;;;;;;5044576;28;20862;-70
2021/05/03 15:12:18;;;;;;;9.10;5.77;;;;;;;;;;5050238;28;20523;-71
2021/05/03 15:14:56;;;;;;;6.43;5.00;;;;;;;;;;5038046;28;20476;-69
2021/05/03 15:17:43;;;;;;;6.63;4.73;;;;;;;;;;5037783;28;20490;-71
2021/05/03 15:20:23;;;;;;;8.87;4.67;;;;;;;;;;5032191;28;20478;-70
2021/05/03 15:23:06;;;;;;;5.63;4.30;;;;;;;;;;5026109;28;20475;-70
2021/05/03 15:25:51;;;;;;;6.93;4.40;;;;;;;;;;5023572;28;20459;-71
2021/05/03 15:28:36;;;;;;;5.43;4.47;;;;;;;;;;5037361;28;20882;-71
2021/05/03 15:31:22;;;;;;;5.27;4.23;;;;;;;;;;5035131;28;20479;-71
2021/05/03 15:34:16;;;;;;;6.17;4.53;;;;;;;;;;5026825;28;20455;-72
2021/05/03 15:36:47;;;;;;;5.13;3.83;;;;;;;;;;5039136;28;20466;-72
2021/05/03 15:39:15;;;;;;;3.60;2.67;;;;;;;;;;5039038;28;20455;-70
2021/05/03 15:41:46;;;;;;;4.80;4.00;;;;;;;;;;5038012;28;20462;-71
2021/05/03 15:44:16;;;;;;;4.40;3.47;;;;;;;;;;5039177;28;20450;-70
2021/05/03 15:46:45;;;;;;;5.30;3.13;;;;;;;;;;5039326;28;20459;-72
2021/05/03 15:49:14;;;;;;;4.87;3.73;;;;;;;;;;5039162;28;20866;-70
2021/05/03 15:51:44;;;;;;;5.20;4.13;;;;;;;;;;5039467;28;20447;-71
2021/05/03 15:54:16;;;;;;;5.67;3.90;;;;;;;;;;5037579;28;20504;-71
2021/05/03 15:56:58;;;;;;;4.80;3.90;;;;;;;;;;5039085;28;20474;-71
2021/05/03 16:02:59;;;;;;;5.63;3.77;;;;;;;;;;5147104;27;20966;-71